createdAt,value
2022-09-04T00:00:08.620Z,99975.00
2022-09-04T00:01:06.099Z,99971.56
2022-09-04T00:02:01.775Z,99980.09
2022-09-04T00:03:02.709Z,99983.28
2022-09-04T00:03:54.593Z,99974.78
2022-09-04T00:04:32.695Z,99977.19
2022-09-04T00:05:24.112Z,99972.06
2022-09-04T00:05:58.914Z,99979.28
2022-09-04T00:06:42.723Z,99976.09
2022-09-04T00:07:36.000Z,99971.91
2022-09-04T00:08:50.154Z,99977.87
2022-09-04T00:09:37.091Z,99971.88
2022-09-04T00:10:19.460Z,99978.09
2022-09-04T00:11:04.747Z,99980.50
2022-09-04T00:11:48.916Z,99982.34
2022-09-04T00:12:33.772Z,99984.25
2022-09-04T00:13:36.688Z,99988.91
2022-09-04T00:14:14.835Z,99984.09
2022-09-04T00:14:55.316Z,99988.06
2022-09-04T00:15:33.294Z,99989.84
2022-09-04T00:16:20.147Z,99984.63
2022-09-04T00:17:02.106Z,99988.84
2022-09-04T00:17:52.767Z,99993.66
2022-09-04T00:18:36.993Z,99987.34
2022-09-04T00:19:14.626Z,99992.22
2022-09-04T00:19:59.597Z,99982.62
2022-09-04T00:20:42.893Z,99992.38
2022-09-04T00:21:26.930Z,99994.78
2022-09-04T00:22:01.317Z,99991.88
2022-09-04T00:22:54.126Z,99995.41
2022-09-04T00:23:44.714Z,99992.38
2022-09-04T00:24:25.177Z,100001.38
2022-09-04T00:25:17.190Z,100003.00
2022-09-04T00:25:56.449Z,99999.81
2022-09-04T00:26:43.563Z,100000.97
2022-09-04T00:27:24.818Z,100003.88
2022-09-04T00:28:32.190Z,100004.66
2022-09-04T00:29:19.463Z,100005.00
2022-09-04T00:30:08.323Z,100008.28
2022-09-04T00:30:55.493Z,100002.09
2022-09-04T00:31:37.199Z,100006.09
2022-09-04T00:32:34.892Z,100008.00
2022-09-04T00:33:19.241Z,100001.16
2022-09-04T00:34:10.205Z,100005.06
2022-09-04T00:34:57.498Z,100004.19
2022-09-04T00:35:37.948Z,100009.16
2022-09-04T00:36:13.589Z,100010.75
2022-09-04T00:36:50.890Z,100007.06
2022-09-04T00:37:29.543Z,100002.59
2022-09-04T00:38:40.251Z,100002.34
2022-09-04T00:39:21.349Z,100009.22
2022-09-04T00:40:21.477Z,100002.59
2022-09-04T00:41:07.780Z,100006.59
2022-09-04T00:42:04.217Z,100007.22
2022-09-04T00:43:06.673Z,100014.66
2022-09-04T00:43:47.589Z,100008.66
2022-09-04T00:44:40.434Z,100009.53
2022-09-04T00:45:28.015Z,100006.19
2022-09-04T00:46:18.400Z,100009.84
2022-09-04T00:46:59.098Z,100016.63
2022-09-04T00:47:33.659Z,100009.59
2022-09-04T00:48:43.691Z,100021.25
2022-09-04T00:49:29.074Z,100017.97
2022-09-04T00:50:30.368Z,100016.31
2022-09-04T00:51:17.752Z,100013.59
2022-09-04T00:51:56.829Z,100018.25
2022-09-04T00:52:48.544Z,100022.06
2022-09-04T00:53:31.185Z,100013.31
2022-09-04T00:54:21.998Z,100012.44
2022-09-04T00:55:32.450Z,100016.00
2022-09-04T00:56:04.610Z,100012.50
2022-09-04T00:56:54.985Z,100013.41
2022-09-04T00:57:29.353Z,100013.22
2022-09-04T00:58:20.371Z,100013.47
2022-09-04T00:59:07.301Z,100013.53
2022-09-04T00:59:47.867Z,100011.97
2022-09-04T01:00:21.100Z,100013.59
2022-09-04T01:00:56.974Z,100015.03
2022-09-04T01:01:29.934Z,100011.84
2022-09-04T01:02:23.712Z,100006.44
2022-09-04T01:03:07.846Z,100014.97
2022-09-04T01:03:45.562Z,100009.44
2022-09-04T01:04:48.670Z,100011.69
2022-09-04T01:05:45.542Z,100007.22
2022-09-04T01:06:46.588Z,100005.41
2022-09-04T01:07:40.078Z,100014.31
2022-09-04T01:08:20.483Z,99993.34
2022-09-04T01:09:22.683Z,100005.56
2022-09-04T01:10:19.362Z,100000.50
2022-09-04T01:11:03.902Z,100003.69
2022-09-04T01:12:10.881Z,100006.75
2022-09-04T01:12:46.009Z,99994.03
2022-09-04T01:13:41.515Z,99999.16
2022-09-04T01:14:41.387Z,100001.97
2022-09-04T01:15:30.249Z,100006.59
2022-09-04T01:16:23.496Z,100007.69
2022-09-04T01:17:30.222Z,100008.34
2022-09-04T01:18:16.966Z,100004.03
2022-09-04T01:19:26.572Z,100006.16
2022-09-04T01:20:06.114Z,100000.59
2022-09-04T01:20:56.448Z,100000.19
2022-09-04T01:21:47.712Z,99996.84
2022-09-04T01:22:46.018Z,100002.44
2022-09-04T01:23:36.325Z,100002.44
2022-09-04T01:24:29.661Z,100004.56
2022-09-04T01:25:25.799Z,100004.91
2022-09-04T01:26:20.784Z,100002.41
2022-09-04T01:27:09.976Z,100001.56
2022-09-04T01:28:04.859Z,100006.41
2022-09-04T01:28:43.808Z,100008.56
2022-09-04T01:29:46.000Z,100008.00
2022-09-04T01:30:20.092Z,100005.91
2022-09-04T01:31:14.043Z,100007.44
2022-09-04T01:32:01.390Z,100010.00
2022-09-04T01:33:17.959Z,100003.06
2022-09-04T01:33:58.217Z,100017.53
2022-09-04T01:35:02.561Z,100014.88
2022-09-04T01:35:58.613Z,100016.16
2022-09-04T01:37:05.818Z,100012.53
2022-09-04T01:38:02.686Z,100015.25
2022-09-04T01:39:06.056Z,100015.03
2022-09-04T01:39:43.497Z,100012.25
2022-09-04T01:40:35.258Z,100012.31
2022-09-04T01:41:27.560Z,100018.38
2022-09-04T01:42:29.932Z,100018.09
2022-09-04T01:43:13.623Z,100016.03
2022-09-04T01:43:45.564Z,100017.66
2022-09-04T01:44:17.497Z,100017.66
2022-09-04T01:44:50.015Z,100020.03
2022-09-04T01:45:38.251Z,100020.09
2022-09-04T01:46:32.902Z,100018.53
2022-09-04T01:47:32.123Z,100019.31
2022-09-04T01:48:08.065Z,100031.56
2022-09-04T01:49:14.262Z,100033.37
2022-09-04T01:49:58.281Z,100023.00
2022-09-04T01:50:33.037Z,100031.06
2022-09-04T01:51:45.294Z,100029.03
2022-09-04T01:52:46.251Z,100027.44
2022-09-04T01:53:25.359Z,100029.78
2022-09-04T01:54:35.237Z,100032.63
2022-09-04T01:55:16.968Z,100031.78
2022-09-04T01:56:04.177Z,100035.03
2022-09-04T01:56:42.362Z,100030.00
2022-09-04T01:57:45.128Z,100028.97
2022-09-04T01:58:48.228Z,100032.88
2022-09-04T01:59:30.147Z,100037.47
2022-09-04T02:00:10.993Z,100035.03
2022-09-04T02:01:21.189Z,100036.75
2022-09-04T02:02:00.781Z,100033.13
2022-09-04T02:02:53.222Z,100032.56
2022-09-04T02:03:46.492Z,100030.06
2022-09-04T02:04:54.613Z,100040.56
2022-09-04T02:05:53.853Z,100038.28
2022-09-04T02:06:33.485Z,100040.50
2022-09-04T02:07:30.132Z,100034.91
2022-09-04T02:08:21.861Z,100035.56
2022-09-04T02:09:02.650Z,100035.03
2022-09-04T02:09:38.057Z,100030.13
2022-09-04T02:10:18.370Z,100033.56
2022-09-04T02:11:00.632Z,100039.16
2022-09-04T02:11:33.013Z,100039.50
2022-09-04T02:12:19.058Z,100039.56
2022-09-04T02:13:08.716Z,100034.78
2022-09-04T02:14:04.341Z,100041.88
2022-09-04T02:14:58.302Z,100031.25
2022-09-04T02:16:02.302Z,100034.00
2022-09-04T02:17:02.838Z,100038.34
2022-09-04T02:18:11.599Z,100038.97
2022-09-04T02:18:53.267Z,100037.84
2022-09-04T02:19:41.730Z,100034.84
2022-09-04T02:20:27.188Z,100037.91
2022-09-04T02:21:07.797Z,100033.69
2022-09-04T02:22:04.086Z,100032.69
2022-09-04T02:22:54.136Z,100036.06
2022-09-04T02:23:45.542Z,100036.06
2022-09-04T02:24:45.207Z,100031.25
2022-09-04T02:25:38.057Z,100030.78
2022-09-04T02:26:15.568Z,100030.78
2022-09-04T02:26:52.910Z,100025.06
2022-09-04T02:27:42.564Z,100026.87
2022-09-04T02:28:39.735Z,100028.56
2022-09-04T02:29:20.499Z,100032.25
2022-09-04T02:30:04.033Z,100027.03
2022-09-04T02:31:01.962Z,100025.41
2022-09-04T02:31:50.766Z,100031.59
2022-09-04T02:32:37.853Z,100024.94
2022-09-04T02:33:35.523Z,100031.91
2022-09-04T02:34:29.114Z,100022.16
2022-09-04T02:35:19.157Z,100027.69
2022-09-04T02:36:04.922Z,100032.63
2022-09-04T02:37:07.582Z,100029.50
2022-09-04T02:38:01.317Z,100025.34
2022-09-04T02:38:42.933Z,100033.03
2022-09-04T02:39:41.903Z,100028.16
2022-09-04T02:40:13.783Z,100027.50
2022-09-04T02:40:51.652Z,100029.34
2022-09-04T02:41:35.036Z,100021.44
2022-09-04T02:42:27.885Z,100026.97
2022-09-04T02:43:21.395Z,100030.50
2022-09-04T02:44:41.283Z,100027.37
2022-09-04T02:45:25.731Z,100023.06
2022-09-04T02:46:24.052Z,100021.94
2022-09-04T02:47:17.390Z,100022.66
2022-09-04T02:47:52.765Z,100026.78
2022-09-04T02:48:50.001Z,100029.22
2022-09-04T02:50:07.659Z,100027.75
2022-09-04T02:50:58.188Z,100032.84
2022-09-04T02:51:45.522Z,100031.78
2022-09-04T02:52:41.956Z,100022.03
2022-09-04T02:53:32.720Z,100024.59
2022-09-04T02:54:24.478Z,100028.78
2022-09-04T02:55:18.497Z,100035.28
2022-09-04T02:55:59.447Z,100029.34
2022-09-04T02:57:04.028Z,100032.88
2022-09-04T02:58:15.275Z,100027.59
2022-09-04T02:58:50.073Z,100028.00
2022-09-04T02:59:50.386Z,100029.22
2022-09-04T03:00:39.451Z,100036.47
2022-09-04T03:01:24.017Z,100030.63
2022-09-04T03:02:05.092Z,100026.97
2022-09-04T03:03:02.930Z,100028.41
2022-09-04T03:03:57.230Z,100026.94
2022-09-04T03:04:52.668Z,100031.16
2022-09-04T03:05:29.466Z,100026.66
2022-09-04T03:06:48.693Z,100027.00
2022-09-04T03:07:32.813Z,100029.88
2022-09-04T03:08:07.651Z,100023.63
2022-09-04T03:08:47.071Z,100030.59
2022-09-04T03:09:44.189Z,100028.28
2022-09-04T03:10:26.622Z,100026.44
2022-09-04T03:11:23.426Z,100027.56
2022-09-04T03:12:15.290Z,100029.72
2022-09-04T03:13:09.130Z,100028.59
2022-09-04T03:13:54.678Z,100024.59
2022-09-04T03:15:03.528Z,100030.72
2022-09-04T03:15:45.215Z,100025.25
2022-09-04T03:16:35.904Z,100033.72
2022-09-04T03:17:26.016Z,100029.72
2022-09-04T03:18:25.627Z,100031.62
2022-09-04T03:19:16.539Z,100036.25
2022-09-04T03:20:00.683Z,100039.47
2022-09-04T03:20:41.752Z,100035.12
2022-09-04T03:21:21.025Z,100040.84
2022-09-04T03:22:04.209Z,100034.94
2022-09-04T03:22:54.522Z,100033.78
2022-09-04T03:23:42.636Z,100037.56
2022-09-04T03:24:26.345Z,100033.41
2022-09-04T03:25:20.985Z,100035.31
2022-09-04T03:26:01.811Z,100042.97
2022-09-04T03:26:44.985Z,100036.63
2022-09-04T03:27:19.077Z,100030.28
2022-09-04T03:27:51.259Z,100029.41
2022-09-04T03:28:34.726Z,100042.19
2022-09-04T03:29:15.789Z,100034.84
2022-09-04T03:30:01.412Z,100029.44
2022-09-04T03:30:36.270Z,100034.22
2022-09-04T03:31:29.687Z,100032.47
2022-09-04T03:32:16.839Z,100035.81
2022-09-04T03:33:15.360Z,100038.75
2022-09-04T03:34:02.781Z,100036.44
2022-09-04T03:34:46.883Z,100032.28
2022-09-04T03:35:42.618Z,100036.13
2022-09-04T03:36:20.799Z,100035.25
2022-09-04T03:37:20.235Z,100036.28
2022-09-04T03:38:33.054Z,100042.31
2022-09-04T03:39:33.678Z,100042.38
2022-09-04T03:40:08.745Z,100035.97
2022-09-04T03:40:45.593Z,100042.03
2022-09-04T03:41:55.164Z,100044.94
2022-09-04T03:42:47.296Z,100043.00
2022-09-04T03:43:31.640Z,100044.59
2022-09-04T03:44:31.701Z,100050.66
2022-09-04T03:45:06.261Z,100049.16
2022-09-04T03:45:59.167Z,100041.72
2022-09-04T03:46:40.245Z,100043.41
2022-09-04T03:47:18.222Z,100047.94
2022-09-04T03:47:59.101Z,100047.25
2022-09-04T03:48:37.101Z,100050.13
2022-09-04T03:49:12.032Z,100052.81
2022-09-04T03:50:09.945Z,100045.16
2022-09-04T03:50:55.151Z,100053.84
2022-09-04T03:51:54.765Z,100055.06
2022-09-04T03:52:45.971Z,100053.06
2022-09-04T03:53:50.863Z,100056.12
2022-09-04T03:55:10.640Z,100052.25
2022-09-04T03:56:17.770Z,100058.56
2022-09-04T03:57:07.637Z,100056.88
2022-09-04T03:58:05.396Z,100055.13
2022-09-04T03:59:05.585Z,100064.59
2022-09-04T04:00:07.969Z,100073.03
2022-09-04T04:00:57.172Z,100063.84
2022-09-04T04:01:41.419Z,100066.34
2022-09-04T04:02:34.943Z,100067.31
2022-09-04T04:03:40.566Z,100069.38
2022-09-04T04:04:35.258Z,100069.44
2022-09-04T04:05:37.139Z,100080.06
2022-09-04T04:06:08.886Z,100080.25
2022-09-04T04:07:19.862Z,100083.34
2022-09-04T04:07:57.612Z,100078.63
2022-09-04T04:08:38.525Z,100079.19
2022-09-04T04:09:22.566Z,100082.94
2022-09-04T04:10:03.535Z,100081.09
2022-09-04T04:11:10.788Z,100082.16
2022-09-04T04:12:19.110Z,100082.31
2022-09-04T04:12:53.776Z,100076.81
2022-09-04T04:13:58.517Z,100082.62
2022-09-04T04:15:07.837Z,100085.50
2022-09-04T04:16:08.502Z,100090.84
2022-09-04T04:16:55.811Z,100096.66
2022-09-04T04:18:09.133Z,100093.66
2022-09-04T04:19:15.706Z,100099.09
2022-09-04T04:19:55.442Z,100094.69
2022-09-04T04:20:34.777Z,100095.56
2022-09-04T04:21:54.843Z,100103.41
2022-09-04T04:23:08.108Z,100104.69
2022-09-04T04:24:07.745Z,100103.19
2022-09-04T04:25:01.262Z,100106.03
2022-09-04T04:26:07.740Z,100109.72
2022-09-04T04:26:50.589Z,100107.16
2022-09-04T04:27:38.177Z,100104.19
2022-09-04T04:28:38.045Z,100111.06
2022-09-04T04:29:12.929Z,100101.72
2022-09-04T04:30:05.178Z,100100.84
2022-09-04T04:30:54.679Z,100107.53
2022-09-04T04:32:13.537Z,100105.31
2022-09-04T04:33:15.446Z,100110.75
2022-09-04T04:33:53.089Z,100109.66
2022-09-04T04:34:38.011Z,100111.84
2022-09-04T04:35:16.134Z,100113.62
2022-09-04T04:36:07.011Z,100116.81
2022-09-04T04:36:41.854Z,100126.06
2022-09-04T04:37:31.564Z,100115.66
2022-09-04T04:38:31.353Z,100121.47
2022-09-04T04:39:32.575Z,100117.44
2022-09-04T04:40:27.912Z,100117.84
2022-09-04T04:41:26.309Z,100113.03
2022-09-04T04:42:07.057Z,100121.53
2022-09-04T04:43:07.944Z,100124.03
2022-09-04T04:43:48.546Z,100119.59
2022-09-04T04:45:02.532Z,100115.37
2022-09-04T04:45:59.266Z,100127.63
2022-09-04T04:46:51.546Z,100128.22
2022-09-04T04:47:58.844Z,100126.56
2022-09-04T04:48:52.337Z,100125.25
2022-09-04T04:49:34.200Z,100136.19
2022-09-04T04:50:11.811Z,100134.34
2022-09-04T04:51:23.245Z,100137.88
2022-09-04T04:52:15.865Z,100135.94
2022-09-04T04:53:01.094Z,100132.47
2022-09-04T04:53:57.891Z,100131.50
2022-09-04T04:55:07.580Z,100134.78
2022-09-04T04:55:50.399Z,100132.78
2022-09-04T04:56:48.239Z,100130.31
2022-09-04T04:57:36.541Z,100131.19
2022-09-04T04:58:26.153Z,100129.66
2022-09-04T04:59:07.145Z,100138.19
2022-09-04T05:00:08.918Z,100129.13
2022-09-04T05:00:58.811Z,100139.31
2022-09-04T05:02:00.678Z,100135.47
2022-09-04T05:02:42.169Z,100139.72
2022-09-04T05:03:23.068Z,100133.25
2022-09-04T05:04:34.788Z,100136.47
2022-09-04T05:05:15.919Z,100134.84
2022-09-04T05:06:18.163Z,100130.72
2022-09-04T05:07:17.941Z,100128.87
2022-09-04T05:07:55.898Z,100131.50
2022-09-04T05:08:50.810Z,100137.47
2022-09-04T05:09:40.079Z,100140.38
2022-09-04T05:10:37.898Z,100144.75
2022-09-04T05:11:35.256Z,100145.28
2022-09-04T05:12:25.348Z,100146.91
2022-09-04T05:13:39.478Z,100145.06
2022-09-04T05:14:37.533Z,100143.19
2022-09-04T05:15:32.145Z,100145.72
2022-09-04T05:16:12.502Z,100153.53
2022-09-04T05:17:20.288Z,100150.59
2022-09-04T05:18:21.540Z,100148.44
2022-09-04T05:19:02.065Z,100146.56
2022-09-04T05:19:45.146Z,100147.50
2022-09-04T05:20:51.081Z,100145.41
2022-09-04T05:21:50.668Z,100146.22
2022-09-04T05:22:35.317Z,100151.81
2022-09-04T05:23:38.351Z,100150.91
2022-09-04T05:24:51.928Z,100149.37
2022-09-04T05:25:50.647Z,100155.13
2022-09-04T05:26:48.382Z,100146.84
2022-09-04T05:27:20.247Z,100157.84
2022-09-04T05:28:26.160Z,100155.59
2022-09-04T05:29:17.698Z,100156.94
2022-09-04T05:29:55.856Z,100158.19
2022-09-04T05:31:02.934Z,100154.84
2022-09-04T05:31:40.576Z,100167.00
2022-09-04T05:32:30.663Z,100162.37
2022-09-04T05:33:40.377Z,100153.91
2022-09-04T05:34:13.001Z,100161.09
2022-09-04T05:34:51.729Z,100165.47
2022-09-04T05:35:45.444Z,100157.09
2022-09-04T05:36:41.337Z,100154.84
2022-09-04T05:37:42.037Z,100164.22
2022-09-04T05:38:20.244Z,100156.72
2022-09-04T05:39:13.944Z,100167.91
2022-09-04T05:40:19.653Z,100170.47
2022-09-04T05:41:05.614Z,100171.34
2022-09-04T05:42:06.806Z,100170.28
2022-09-04T05:42:43.287Z,100163.91
2022-09-04T05:43:40.052Z,100169.44
2022-09-04T05:44:30.155Z,100168.16
2022-09-04T05:45:23.944Z,100164.94
2022-09-04T05:46:30.469Z,100165.09
2022-09-04T05:47:38.770Z,100170.78
2022-09-04T05:48:10.603Z,100168.47
2022-09-04T05:49:15.174Z,100171.03
2022-09-04T05:50:08.355Z,100167.66
2022-09-04T05:50:49.666Z,100170.38
2022-09-04T05:51:38.884Z,100171.50
2022-09-04T05:52:20.140Z,100174.78
2022-09-04T05:53:10.847Z,100180.06
2022-09-04T05:54:25.878Z,100171.81
2022-09-04T05:55:12.551Z,100179.19
2022-09-04T05:56:04.735Z,100185.13
2022-09-04T05:57:10.050Z,100176.78
2022-09-04T05:57:59.043Z,100182.53
2022-09-04T05:58:30.946Z,100176.06
2022-09-04T05:59:32.115Z,100175.22
2022-09-04T06:00:19.273Z,100169.41
2022-09-04T06:01:16.126Z,100174.53
2022-09-04T06:01:59.887Z,100172.41
2022-09-04T06:03:29.280Z,100178.06
2022-09-04T06:04:23.751Z,100173.78
2022-09-04T06:05:04.669Z,100178.63
2022-09-04T06:05:57.477Z,100173.38
2022-09-04T06:06:50.417Z,100178.25
2022-09-04T06:07:27.749Z,100180.03
2022-09-04T06:08:11.861Z,100178.12
2022-09-04T06:09:01.550Z,100183.00
2022-09-04T06:09:51.299Z,100181.12
2022-09-04T06:10:35.082Z,100176.16
2022-09-04T06:11:09.666Z,100186.56
2022-09-04T06:11:51.452Z,100188.41
2022-09-04T06:12:23.330Z,100176.50
2022-09-04T06:12:55.212Z,100176.59
2022-09-04T06:13:39.494Z,100177.56
2022-09-04T06:14:29.693Z,100180.41
2022-09-04T06:15:26.049Z,100178.94
2022-09-04T06:16:26.114Z,100174.00
2022-09-04T06:17:04.034Z,100176.91
2022-09-04T06:17:51.167Z,100182.13
2022-09-04T06:18:40.720Z,100177.34
2022-09-04T06:19:47.754Z,100176.56
2022-09-04T06:20:33.420Z,100175.84
2022-09-04T06:21:27.124Z,100182.75
2022-09-04T06:22:05.390Z,100175.84
2022-09-04T06:22:57.054Z,100177.94
2022-09-04T06:24:07.845Z,100179.47
2022-09-04T06:25:17.579Z,100176.03
2022-09-04T06:26:04.800Z,100184.16
2022-09-04T06:26:56.492Z,100177.09
2022-09-04T06:28:06.247Z,100178.19
2022-09-04T06:29:05.980Z,100182.31
2022-09-04T06:29:56.048Z,100178.78
2022-09-04T06:30:43.305Z,100177.03
2022-09-04T06:31:21.038Z,100176.91
2022-09-04T06:32:11.077Z,100179.41
2022-09-04T06:32:43.221Z,100183.28
2022-09-04T06:33:44.702Z,100177.91
2022-09-04T06:34:34.719Z,100178.50
2022-09-04T06:35:27.685Z,100186.31
2022-09-04T06:36:05.621Z,100174.16
2022-09-04T06:36:48.693Z,100185.06
2022-09-04T06:37:32.406Z,100184.78
2022-09-04T06:38:29.308Z,100178.75
2022-09-04T06:39:45.086Z,100181.25
2022-09-04T06:40:52.683Z,100183.84
2022-09-04T06:41:54.505Z,100184.88
2022-09-04T06:42:48.182Z,100184.31
2022-09-04T06:43:40.581Z,100176.37
2022-09-04T06:44:29.499Z,100178.97
2022-09-04T06:45:25.247Z,100182.50
2022-09-04T06:46:26.980Z,100180.59
2022-09-04T06:47:17.318Z,100191.94
2022-09-04T06:48:00.176Z,100183.34
2022-09-04T06:48:38.547Z,100185.94
2022-09-04T06:49:47.504Z,100185.75
2022-09-04T06:50:22.941Z,100187.59
2022-09-04T06:51:11.095Z,100188.75
2022-09-04T06:51:55.050Z,100194.09
2022-09-04T06:52:46.113Z,100192.50
2022-09-04T06:53:42.822Z,100194.84
2022-09-04T06:54:21.212Z,100201.50
2022-09-04T06:55:02.931Z,100194.84
2022-09-04T06:55:46.036Z,100193.19
2022-09-04T06:56:26.911Z,100186.03
2022-09-04T06:57:26.358Z,100196.50
2022-09-04T06:58:16.959Z,100194.97
2022-09-04T06:59:10.358Z,100195.25
2022-09-04T07:00:01.923Z,100196.16
2022-09-04T07:01:02.286Z,100189.56
2022-09-04T07:02:17.892Z,100195.78
2022-09-04T07:02:59.597Z,100189.72
2022-09-04T07:03:40.658Z,100189.50
2022-09-04T07:04:39.799Z,100187.22
2022-09-04T07:05:14.937Z,100192.31
2022-09-04T07:06:10.909Z,100196.00
2022-09-04T07:06:54.695Z,100196.56
2022-09-04T07:07:32.339Z,100197.47
2022-09-04T07:08:13.198Z,100193.50
2022-09-04T07:09:05.073Z,100194.31
2022-09-04T07:09:46.765Z,100200.44
2022-09-04T07:10:27.748Z,100198.34
2022-09-04T07:11:47.414Z,100201.00
2022-09-04T07:12:38.863Z,100207.84
2022-09-04T07:13:37.862Z,100207.34
2022-09-04T07:14:33.958Z,100210.78
2022-09-04T07:15:12.639Z,100213.28
2022-09-04T07:15:58.266Z,100209.28
2022-09-04T07:17:16.109Z,100208.12
2022-09-04T07:17:49.348Z,100205.53
2022-09-04T07:18:34.543Z,100211.56
2022-09-04T07:19:28.605Z,100208.88
2022-09-04T07:20:32.426Z,100216.31
2022-09-04T07:21:30.486Z,100209.16
2022-09-04T07:22:08.142Z,100213.37
2022-09-04T07:22:45.979Z,100208.88
2022-09-04T07:23:36.354Z,100210.81
2022-09-04T07:25:02.003Z,100205.84
2022-09-04T07:25:44.403Z,100203.34
2022-09-04T07:26:32.214Z,100214.16
2022-09-04T07:27:18.308Z,100211.56
2022-09-04T07:27:53.123Z,100208.38
2022-09-04T07:29:00.003Z,100207.94
2022-09-04T07:29:37.086Z,100217.78
2022-09-04T07:30:11.785Z,100218.06
2022-09-04T07:30:53.969Z,100214.34
2022-09-04T07:31:35.068Z,100211.66
2022-09-04T07:32:12.646Z,100220.66
2022-09-04T07:32:54.972Z,100219.06
2022-09-04T07:33:50.484Z,100222.75
2022-09-04T07:34:51.206Z,100221.25
2022-09-04T07:35:37.037Z,100216.75
2022-09-04T07:36:20.966Z,100222.81
2022-09-04T07:37:30.383Z,100225.25
2022-09-04T07:38:24.898Z,100222.25
2022-09-04T07:39:01.743Z,100228.38
2022-09-04T07:39:37.548Z,100231.06
2022-09-04T07:40:31.778Z,100227.09
2022-09-04T07:41:17.687Z,100227.81
2022-09-04T07:42:04.290Z,100231.00
2022-09-04T07:42:48.275Z,100233.94
2022-09-04T07:43:54.818Z,100232.59
2022-09-04T07:44:39.085Z,100232.34
2022-09-04T07:45:36.579Z,100235.84
2022-09-04T07:46:33.502Z,100234.28
2022-09-04T07:47:30.440Z,100231.16
2022-09-04T07:48:22.200Z,100236.63
2022-09-04T07:49:10.176Z,100241.41
2022-09-04T07:50:00.807Z,100231.94
2022-09-04T07:50:38.101Z,100233.59
2022-09-04T07:51:16.930Z,100236.22
2022-09-04T07:51:58.963Z,100240.34
2022-09-04T07:52:50.367Z,100241.91
2022-09-04T07:53:31.869Z,100241.50
2022-09-04T07:54:33.295Z,100237.81
2022-09-04T07:55:05.056Z,100240.16
2022-09-04T07:55:46.901Z,100249.50
2022-09-04T07:56:49.395Z,100239.50
2022-09-04T07:57:24.041Z,100246.75
2022-09-04T07:58:38.478Z,100245.41
2022-09-04T07:59:29.452Z,100245.41
2022-09-04T08:00:18.263Z,100246.25
2022-09-04T08:01:15.327Z,100249.69
2022-09-04T08:02:19.553Z,100245.22
2022-09-04T08:02:57.095Z,100251.91
2022-09-04T08:03:54.434Z,100254.88
2022-09-04T08:04:46.287Z,100250.91
2022-09-04T08:05:27.772Z,100249.31
2022-09-04T08:06:14.127Z,100250.06
2022-09-04T08:06:56.944Z,100259.94
2022-09-04T08:08:08.211Z,100249.34
2022-09-04T08:08:58.901Z,100254.41
2022-09-04T08:10:24.152Z,100249.69
2022-09-04T08:11:15.076Z,100256.81
2022-09-04T08:12:00.157Z,100258.97
2022-09-04T08:12:32.030Z,100255.56
2022-09-04T08:13:14.155Z,100258.41
2022-09-04T08:14:00.447Z,100256.28
2022-09-04T08:14:37.077Z,100266.03
2022-09-04T08:15:24.435Z,100265.50
2022-09-04T08:16:14.436Z,100258.66
2022-09-04T08:17:25.519Z,100265.59
2022-09-04T08:18:11.369Z,100265.09
2022-09-04T08:19:03.457Z,100264.88
2022-09-04T08:19:58.282Z,100268.09
2022-09-04T08:21:05.241Z,100267.81
2022-09-04T08:21:41.253Z,100271.25
2022-09-04T08:22:34.893Z,100270.72
2022-09-04T08:23:29.662Z,100270.22
2022-09-04T08:24:16.534Z,100269.16
2022-09-04T08:24:55.514Z,100266.56
2022-09-04T08:25:45.785Z,100267.94
2022-09-04T08:26:39.465Z,100269.53
2022-09-04T08:28:00.066Z,100260.00
2022-09-04T08:28:47.887Z,100271.94
2022-09-04T08:29:54.905Z,100271.09
2022-09-04T08:30:35.953Z,100272.47
2022-09-04T08:31:21.232Z,100272.84
2022-09-04T08:31:55.412Z,100264.63
2022-09-04T08:32:38.093Z,100266.50
2022-09-04T08:33:10.301Z,100267.87
2022-09-04T08:34:24.530Z,100264.13
2022-09-04T08:35:05.744Z,100264.13
2022-09-04T08:35:43.240Z,100272.72
2022-09-04T08:36:37.985Z,100264.75
2022-09-04T08:37:39.929Z,100252.06
2022-09-04T08:38:26.957Z,100258.41
2022-09-04T08:39:23.185Z,100258.31
2022-09-04T08:40:25.778Z,100247.19
2022-09-04T08:40:57.802Z,100252.53
2022-09-04T08:41:52.244Z,100257.28
2022-09-04T08:42:37.075Z,100255.66
2022-09-04T08:43:20.803Z,100258.34
2022-09-04T08:44:23.501Z,100263.63
2022-09-04T08:45:26.096Z,100257.75
2022-09-04T08:46:29.974Z,100258.81
2022-09-04T08:47:41.284Z,100248.75
2022-09-04T08:48:16.733Z,100260.69
2022-09-04T08:49:10.512Z,100259.09
2022-09-04T08:49:45.283Z,100265.78
2022-09-04T08:50:46.266Z,100263.09
2022-09-04T08:51:59.182Z,100269.25
2022-09-04T08:52:46.083Z,100262.62
2022-09-04T08:53:44.052Z,100264.78
2022-09-04T08:54:34.391Z,100263.47
2022-09-04T08:56:18.591Z,100261.06
2022-09-04T08:57:56.697Z,100254.75
2022-09-04T08:59:24.724Z,100253.69
2022-09-04T09:00:11.609Z,100263.25
2022-09-04T09:01:03.366Z,100261.13
2022-09-04T09:01:35.460Z,100264.56
2022-09-04T09:02:28.921Z,100262.69
2022-09-04T09:03:22.652Z,100262.69
2022-09-04T09:04:32.677Z,100268.53
2022-09-04T09:05:23.976Z,100258.69
2022-09-04T09:06:07.012Z,100261.31
2022-09-04T09:06:51.257Z,100259.50
2022-09-04T09:07:55.615Z,100261.34
2022-09-04T09:09:10.742Z,100256.56
2022-09-04T09:10:04.261Z,100262.41
2022-09-04T09:11:11.200Z,100262.16
2022-09-04T09:12:10.930Z,100265.81
2022-09-04T09:12:57.980Z,100259.44
2022-09-04T09:14:01.813Z,100262.09
2022-09-04T09:14:49.551Z,100260.75
2022-09-04T09:15:51.832Z,100261.03
2022-09-04T09:16:32.775Z,100264.37
2022-09-04T09:17:13.259Z,100261.53
2022-09-04T09:18:02.656Z,100267.13
2022-09-04T09:19:00.351Z,100264.72
2022-09-04T09:19:56.493Z,100266.25
2022-09-04T09:20:38.311Z,100266.22
2022-09-04T09:21:58.148Z,100262.47
2022-09-04T09:23:08.153Z,100255.28
2022-09-04T09:24:03.870Z,100267.47
2022-09-04T09:24:42.017Z,100266.22
2022-09-04T09:25:24.263Z,100261.50
2022-09-04T09:26:18.144Z,100265.44
2022-09-04T09:26:49.998Z,100267.81
2022-09-04T09:27:52.297Z,100274.44
2022-09-04T09:28:39.819Z,100271.00
2022-09-04T09:29:48.731Z,100261.88
2022-09-04T09:30:22.532Z,100264.53
2022-09-04T09:31:28.748Z,100270.63
2022-09-04T09:32:38.648Z,100263.97
2022-09-04T09:33:35.093Z,100265.69
2022-09-04T09:34:12.785Z,100268.19
2022-09-04T09:35:09.863Z,100271.06
2022-09-04T09:36:07.672Z,100272.69
2022-09-04T09:36:48.611Z,100268.44
2022-09-04T09:37:31.581Z,100271.09
2022-09-04T09:38:19.990Z,100272.16
2022-09-04T09:39:16.451Z,100273.22
2022-09-04T09:40:10.054Z,100266.03
2022-09-04T09:40:56.078Z,100275.59
2022-09-04T09:41:42.619Z,100274.25
2022-09-04T09:42:32.940Z,100269.53
2022-09-04T09:43:42.240Z,100268.97
2022-09-04T09:44:35.954Z,100267.41